createdAt,value
2022-12-27T00:00:15.313Z,8.27
2022-12-27T00:02:43.837Z,12.93
2022-12-27T00:05:13.369Z,7.17
2022-12-27T00:07:41.756Z,7.53
2022-12-27T00:10:12.372Z,8.03
2022-12-27T00:12:43.439Z,10.50
2022-12-27T00:15:13.049Z,9.27
2022-12-27T00:17:41.452Z,8.93
2022-12-27T00:20:11.896Z,8.87
2022-12-27T00:22:41.117Z,10.27
2022-12-27T00:25:10.967Z,8.60
2022-12-27T00:27:39.476Z,10.43
2022-12-27T00:30:10.485Z,7.60
2022-12-27T00:32:38.904Z,7.73
2022-12-27T00:35:08.042Z,10.20
2022-12-27T00:37:36.511Z,8.90
2022-12-27T00:40:05.315Z,10.67
2022-12-27T00:42:33.796Z,11.07
2022-12-27T00:45:02.122Z,11.10
2022-12-27T00:47:31.981Z,12.77
2022-12-27T00:50:00.285Z,14.20
2022-12-27T00:52:28.745Z,14.10
2022-12-27T00:54:57.086Z,14.93
2022-12-27T00:57:25.522Z,16.60
2022-12-27T00:59:53.945Z,13.37
2022-12-27T01:02:22.321Z,21.50
2022-12-27T01:04:53.901Z,15.73
2022-12-27T01:07:22.341Z,14.20
2022-12-27T01:09:51.115Z,12.30
2022-12-27T01:12:19.556Z,10.67
2022-12-27T01:14:48.090Z,10.97
2022-12-27T01:17:18.839Z,8.63
2022-12-27T01:19:47.260Z,8.50
2022-12-27T01:22:16.998Z,7.20
2022-12-27T01:24:45.357Z,9.43
2022-12-27T01:27:13.775Z,7.20
2022-12-27T01:29:42.218Z,10.97
2022-12-27T01:32:10.806Z,6.77
2022-12-27T01:34:39.160Z,8.03
2022-12-27T01:37:07.504Z,8.37
2022-12-27T01:39:37.412Z,9.93
2022-12-27T01:42:23.372Z,9.10
2022-12-27T01:44:57.200Z,5.70
2022-12-27T01:47:39.280Z,7.50
2022-12-27T01:50:13.265Z,11.33
2022-12-27T01:52:46.852Z,6.00
2022-12-27T01:55:24.376Z,6.73
2022-12-27T01:57:56.064Z,6.43
2022-12-27T02:00:30.936Z,5.53
2022-12-27T02:03:03.207Z,17.37
2022-12-27T02:05:33.225Z,5.37
2022-12-27T02:08:16.100Z,8.47
2022-12-27T02:10:47.570Z,7.47
2022-12-27T02:13:17.174Z,8.13
2022-12-27T02:15:45.533Z,4.87
2022-12-27T02:18:15.002Z,4.70
2022-12-27T02:21:14.586Z,9.03
2022-12-27T02:24:04.080Z,6.00
2022-12-27T02:26:53.379Z,6.47
2022-12-27T02:29:49.015Z,10.10
2022-12-27T02:32:24.011Z,5.47
2022-12-27T02:35:06.408Z,7.30
2022-12-27T02:37:40.157Z,8.13
2022-12-27T02:40:28.898Z,5.97
2022-12-27T02:43:15.419Z,7.87
2022-12-27T02:46:08.540Z,5.53
2022-12-27T02:48:54.749Z,6.67
2022-12-27T02:52:01.817Z,5.90
2022-12-27T02:54:50.877Z,4.50
2022-12-27T02:57:29.364Z,4.70
2022-12-27T03:00:29.693Z,4.83
2022-12-27T03:03:29.364Z,3.37
2022-12-27T03:06:39.280Z,5.00
2022-12-27T03:09:45.883Z,5.00
2022-12-27T03:12:41.178Z,5.60
2022-12-27T03:15:41.869Z,3.40
2022-12-27T03:18:15.611Z,4.30
2022-12-27T03:21:05.935Z,4.70
2022-12-27T03:23:53.395Z,3.23
2022-12-27T03:26:26.139Z,2.70
2022-12-27T03:29:13.635Z,4.10
2022-12-27T03:32:03.879Z,3.90
2022-12-27T03:34:38.454Z,4.10
2022-12-27T03:37:29.197Z,3.20
2022-12-27T03:40:07.282Z,2.60
2022-12-27T03:42:58.639Z,3.27
2022-12-27T03:45:46.539Z,5.83
2022-12-27T03:48:21.661Z,3.03
2022-12-27T03:50:54.746Z,3.10
2022-12-27T03:53:31.187Z,2.67
2022-12-27T03:55:59.863Z,3.73
2022-12-27T03:58:28.270Z,2.20
2022-12-27T04:00:56.705Z,2.43
2022-12-27T04:03:26.441Z,3.73
2022-12-27T04:05:54.881Z,4.17
2022-12-27T04:08:42.210Z,2.27
2022-12-27T04:11:27.957Z,3.03
2022-12-27T04:14:13.565Z,2.63
2022-12-27T04:16:59.450Z,3.03
2022-12-27T04:19:45.443Z,3.10
2022-12-27T04:22:31.322Z,3.80
2022-12-27T04:25:18.388Z,4.60
2022-12-27T04:28:04.291Z,2.63
2022-12-27T04:30:51.328Z,4.70
2022-12-27T04:33:37.185Z,2.23
2022-12-27T04:36:07.246Z,3.40
2022-12-27T04:38:35.630Z,3.00
2022-12-27T04:41:22.842Z,2.17
2022-12-27T04:44:08.925Z,2.70
2022-12-27T04:46:54.874Z,2.03
2022-12-27T04:49:44.222Z,3.80
2022-12-27T04:52:35.195Z,2.53
2022-12-27T04:55:15.856Z,2.00
2022-12-27T04:57:45.744Z,2.53
2022-12-27T05:00:33.227Z,4.07
2022-12-27T05:03:03.483Z,2.00
2022-12-27T05:05:33.287Z,2.97
2022-12-27T05:08:19.657Z,2.90
2022-12-27T05:11:05.567Z,4.97
2022-12-27T05:13:52.620Z,5.07
2022-12-27T05:16:21.106Z,7.77
2022-12-27T05:18:49.469Z,2.43
2022-12-27T05:21:17.921Z,2.43
2022-12-27T05:24:05.784Z,4.77
2022-12-27T05:26:35.180Z,4.23
2022-12-27T05:29:05.263Z,2.17
2022-12-27T05:31:35.486Z,3.47
2022-12-27T05:34:03.941Z,1.90
2022-12-27T05:36:32.408Z,3.77
2022-12-27T05:39:01.267Z,4.13
2022-12-27T05:41:29.721Z,1.53
2022-12-27T05:44:06.546Z,2.50
2022-12-27T05:46:38.040Z,2.20
2022-12-27T05:49:07.824Z,2.10
2022-12-27T05:51:36.281Z,1.93
2022-12-27T05:54:04.772Z,3.00
2022-12-27T05:56:35.571Z,1.50
2022-12-27T05:59:03.932Z,3.30
2022-12-27T06:01:32.511Z,3.50
2022-12-27T06:04:02.794Z,3.43
2022-12-27T06:06:31.254Z,1.60
2022-12-27T06:08:59.620Z,3.77
2022-12-27T06:11:28.109Z,3.60
2022-12-27T06:13:59.765Z,4.70
2022-12-27T06:16:28.166Z,4.30
2022-12-27T06:18:57.001Z,3.00
2022-12-27T06:21:26.933Z,2.10
2022-12-27T06:23:55.368Z,2.87
2022-12-27T06:26:25.858Z,2.07
2022-12-27T06:28:55.849Z,5.43
2022-12-27T06:31:25.037Z,4.37
2022-12-27T06:33:54.016Z,3.20
2022-12-27T06:36:26.509Z,1.90
2022-12-27T06:38:56.410Z,1.67
2022-12-27T06:41:26.213Z,2.80
2022-12-27T06:43:56.768Z,3.67
2022-12-27T06:46:26.013Z,2.30
2022-12-27T06:48:54.605Z,2.20
2022-12-27T06:51:23.361Z,2.47
2022-12-27T06:53:51.789Z,2.20
2022-12-27T06:56:23.348Z,2.07
2022-12-27T06:58:53.023Z,4.00
2022-12-27T07:01:23.396Z,3.60
2022-12-27T07:03:54.281Z,2.53
2022-12-27T07:06:24.662Z,2.67
2022-12-27T07:08:53.508Z,1.63
2022-12-27T07:11:24.388Z,3.13
2022-12-27T07:13:54.911Z,4.03
2022-12-27T07:16:25.538Z,1.97
2022-12-27T07:18:55.415Z,1.33
2022-12-27T07:21:25.639Z,1.50
2022-12-27T07:23:54.350Z,1.73
2022-12-27T07:26:28.598Z,1.67
2022-12-27T07:28:58.199Z,1.07
2022-12-27T07:31:29.793Z,4.27
2022-12-27T07:33:59.380Z,2.13
2022-12-27T07:36:29.980Z,1.60
2022-12-27T07:38:58.577Z,3.87
2022-12-27T07:41:28.342Z,2.10
2022-12-27T07:43:56.930Z,3.43
2022-12-27T07:46:27.883Z,1.37
2022-12-27T07:48:57.187Z,2.17
2022-12-27T07:51:26.936Z,1.80
2022-12-27T07:53:56.066Z,3.33
2022-12-27T07:56:26.898Z,2.10
2022-12-27T07:58:59.442Z,3.80
2022-12-27T08:01:30.568Z,2.37
2022-12-27T08:03:59.073Z,3.57
2022-12-27T08:06:31.588Z,1.93
2022-12-27T08:09:01.945Z,1.33
2022-12-27T08:11:31.216Z,1.13
2022-12-27T08:14:00.975Z,1.47
2022-12-27T08:16:29.551Z,4.70
2022-12-27T08:18:59.866Z,1.17
2022-12-27T08:21:31.758Z,2.67
2022-12-27T08:24:00.170Z,3.43
2022-12-27T08:26:28.561Z,3.67
2022-12-27T08:29:01.178Z,2.30
2022-12-27T08:31:31.160Z,2.63
2022-12-27T08:34:05.122Z,2.83
2022-12-27T08:39:28.462Z,1.17
2022-12-27T08:41:57.126Z,2.43
2022-12-27T08:44:27.458Z,3.93
2022-12-27T08:46:57.256Z,2.67
2022-12-27T08:49:25.676Z,2.97
2022-12-27T08:52:00.125Z,1.90
2022-12-27T08:54:31.323Z,1.57
2022-12-27T08:56:59.773Z,1.70
2022-12-27T08:59:28.094Z,1.60
2022-12-27T09:01:57.981Z,1.50
2022-12-27T09:04:26.473Z,2.30
2022-12-27T09:06:54.940Z,2.17
2022-12-27T09:09:23.342Z,1.37
2022-12-27T09:11:52.719Z,2.50
2022-12-27T09:14:21.433Z,1.77
2022-12-27T09:16:50.897Z,2.10
2022-12-27T09:19:20.603Z,2.70
2022-12-27T09:21:49.028Z,3.33
2022-12-27T09:24:17.455Z,2.67
2022-12-27T09:26:45.934Z,3.20
2022-12-27T09:29:14.271Z,2.37
2022-12-27T09:31:42.772Z,4.33
2022-12-27T09:34:11.835Z,2.20
2022-12-27T09:36:42.051Z,2.73
2022-12-27T09:39:13.779Z,2.70
2022-12-27T09:42:47.713Z,1.40
2022-12-27T09:44:52.121Z,1.30
2022-12-27T09:47:26.582Z,2.50
2022-12-27T09:49:58.294Z,1.93
2022-12-27T09:52:35.647Z,3.43
2022-12-27T09:55:09.403Z,2.10
2022-12-27T09:57:40.372Z,4.30
2022-12-27T10:00:16.609Z,1.57
2022-12-27T10:02:45.833Z,2.43
2022-12-27T10:05:22.800Z,2.70
2022-12-27T10:08:04.553Z,1.60
2022-12-27T10:10:43.719Z,4.67
2022-12-27T10:13:31.215Z,2.53
2022-12-27T10:16:11.791Z,1.83
2022-12-27T10:18:50.161Z,1.57
2022-12-27T10:21:24.579Z,1.77
2022-12-27T10:23:58.068Z,2.67
2022-12-27T10:26:27.110Z,2.00
2022-12-27T10:29:00.553Z,1.30
2022-12-27T10:31:31.378Z,1.83
2022-12-27T10:34:04.018Z,0.83
2022-12-27T10:36:36.084Z,1.50
2022-12-27T10:39:13.563Z,1.30
2022-12-27T10:42:01.795Z,2.13
2022-12-27T10:44:32.253Z,2.20
2022-12-27T10:47:01.118Z,0.87
2022-12-27T10:49:31.296Z,1.50
2022-12-27T10:52:08.197Z,0.90
2022-12-27T10:54:51.282Z,1.00
2022-12-27T10:57:27.285Z,1.30
2022-12-27T11:00:18.159Z,0.60
2022-12-27T11:02:54.065Z,0.77
2022-12-27T11:05:25.249Z,1.40
2022-12-27T11:07:53.653Z,1.10
2022-12-27T11:10:25.244Z,2.70
2022-12-27T11:13:02.014Z,1.17
2022-12-27T11:15:34.176Z,1.73
2022-12-27T11:18:10.409Z,1.67
2022-12-27T11:20:42.351Z,1.43
2022-12-27T11:23:16.575Z,1.73
2022-12-27T11:25:54.464Z,2.10
2022-12-27T11:28:30.487Z,1.00
2022-12-27T11:31:00.923Z,1.77
2022-12-27T11:33:37.626Z,2.10
2022-12-27T11:36:07.563Z,1.13
2022-12-27T11:38:38.863Z,0.50
2022-12-27T11:41:11.215Z,1.10
2022-12-27T11:43:48.912Z,0.57
2022-12-27T11:46:27.945Z,1.17
2022-12-27T11:48:58.604Z,1.20
2022-12-27T11:51:50.769Z,0.83
2022-12-27T11:54:35.153Z,1.07
2022-12-27T11:57:20.751Z,1.30
2022-12-27T12:00:00.399Z,0.77
2022-12-27T12:02:35.110Z,0.97
2022-12-27T12:05:50.099Z,2.87
2022-12-27T12:08:56.520Z,1.50
2022-12-27T12:11:40.754Z,1.00
2022-12-27T12:14:51.604Z,7.40
2022-12-27T12:17:47.775Z,1.40
2022-12-27T12:20:50.683Z,2.37
2022-12-27T12:23:31.559Z,87.87
2022-12-27T12:26:17.831Z,5.60
2022-12-27T12:29:23.291Z,2.20
2022-12-27T12:32:33.877Z,6.13
2022-12-27T12:35:25.495Z,33.07
2022-12-27T12:38:14.271Z,4.00
2022-12-27T12:41:00.644Z,1.77
2022-12-27T12:43:53.102Z,0.63
2022-12-27T12:46:32.230Z,2.03
2022-12-27T12:49:17.578Z,1.00
2022-12-27T12:52:05.223Z,0.80
2022-12-27T12:54:55.772Z,0.50
2022-12-27T12:57:42.065Z,1.53
2022-12-27T13:00:30.995Z,0.50
2022-12-27T13:03:29.655Z,0.83
2022-12-27T13:06:05.624Z,0.70
2022-12-27T13:08:44.848Z,1.83
2022-12-27T13:11:39.294Z,0.80
2022-12-27T13:14:23.132Z,0.67
2022-12-27T13:16:59.981Z,0.30
2022-12-27T13:19:45.487Z,0.40
2022-12-27T13:22:22.367Z,0.80
2022-12-27T13:25:20.285Z,2.30
2022-12-27T13:27:59.165Z,0.83
2022-12-27T13:30:35.666Z,0.90
2022-12-27T13:33:18.800Z,1.30
2022-12-27T13:36:12.949Z,2.30
2022-12-27T13:39:08.971Z,4.40
2022-12-27T13:41:51.335Z,8.33
2022-12-27T13:44:32.996Z,4.57
2022-12-27T13:47:22.436Z,3.80
2022-12-27T13:50:16.041Z,1.67
2022-12-27T13:53:00.547Z,1.10
2022-12-27T13:55:43.483Z,4.27
2022-12-27T13:58:32.698Z,2.70
2022-12-27T14:01:21.368Z,40.87
2022-12-27T14:04:08.586Z,21.43
2022-12-27T14:06:56.917Z,5.37
2022-12-27T14:09:49.765Z,1.83
2022-12-27T14:12:57.160Z,4.20
2022-12-27T14:16:01.262Z,4.93
2022-12-27T14:18:53.242Z,5.00
2022-12-27T14:21:47.974Z,0.53
2022-12-27T14:24:42.004Z,1.70
2022-12-27T14:27:45.258Z,5.10
2022-12-27T14:30:53.269Z,4.10
2022-12-27T14:34:09.900Z,2.87
2022-12-27T14:37:11.547Z,4.50
2022-12-27T14:40:18.022Z,2.43
2022-12-27T14:43:23.003Z,3.07
2022-12-27T14:46:33.033Z,5.10
2022-12-27T14:49:36.568Z,4.90
2022-12-27T14:52:46.601Z,6.67
2022-12-27T14:55:44.879Z,8.07
2022-12-27T14:58:34.230Z,8.93
2022-12-27T15:01:10.601Z,66.67
2022-12-27T15:03:54.688Z,84.30
2022-12-27T15:06:47.713Z,25.63
2022-12-27T15:09:26.223Z,17.67
2022-12-27T15:12:10.369Z,10.37
2022-12-27T15:15:10.255Z,4.93
2022-12-27T15:18:01.928Z,6.47
2022-12-27T15:20:56.135Z,12.03
2022-12-27T15:23:35.539Z,13.13
2022-12-27T15:26:19.024Z,15.33
2022-12-27T15:29:02.008Z,57.43
2022-12-27T15:31:39.227Z,248.53
2022-12-27T15:34:20.601Z,175.27
2022-12-27T15:36:52.212Z,45.50
2022-12-27T15:39:51.714Z,26.17
2022-12-27T15:42:43.339Z,19.73
2022-12-27T15:45:28.582Z,17.23
2022-12-27T15:48:33.205Z,23.63
2022-12-27T15:51:07.588Z,31.73
2022-12-27T15:54:10.346Z,31.40
2022-12-27T15:56:49.873Z,26.83
2022-12-27T15:59:41.469Z,28.60
2022-12-27T16:02:55.758Z,31.70
2022-12-27T16:05:48.987Z,31.87
2022-12-27T16:08:39.028Z,30.90
2022-12-27T16:11:11.016Z,51.83
2022-12-27T16:13:45.601Z,60.37
2022-12-27T16:16:56.627Z,67.03
2022-12-27T16:19:57.750Z,63.43
2022-12-27T16:22:34.548Z,64.53
2022-12-27T16:25:31.833Z,51.77
2022-12-27T16:28:04.472Z,53.60
2022-12-27T16:30:51.844Z,42.70
2022-12-27T16:33:35.342Z,50.80
2022-12-27T16:36:28.339Z,49.33
2022-12-27T16:39:17.071Z,53.07
2022-12-27T16:42:06.142Z,57.50
2022-12-27T16:44:53.087Z,44.30
2022-12-27T16:47:54.314Z,33.90
2022-12-27T16:50:42.622Z,31.90
2022-12-27T16:53:25.036Z,26.43
2022-12-27T16:56:10.891Z,28.27
2022-12-27T16:58:40.096Z,24.60
2022-12-27T17:01:45.989Z,20.87
2022-12-27T17:04:47.813Z,22.57
2022-12-27T17:07:49.235Z,21.10
2022-12-27T17:11:02.150Z,14.90
2022-12-27T17:13:37.889Z,18.50
2022-12-27T17:16:16.269Z,14.73
2022-12-27T17:18:49.240Z,11.87
2022-12-27T17:21:29.886Z,15.53
2022-12-27T17:24:01.786Z,20.77
2022-12-27T17:27:09.201Z,26.13
2022-12-27T17:30:03.525Z,21.67
2022-12-27T17:32:49.405Z,22.60
2022-12-27T17:35:28.880Z,25.20
2022-12-27T17:38:12.741Z,26.70
2022-12-27T17:40:49.591Z,27.37
2022-12-27T17:43:50.654Z,32.17
2022-12-27T17:46:32.365Z,31.80
2022-12-27T17:49:01.041Z,27.73
2022-12-27T17:51:32.930Z,26.73
2022-12-27T17:54:18.567Z,30.00
2022-12-27T17:57:05.411Z,28.70
2022-12-27T17:59:36.042Z,26.27
2022-12-27T18:02:15.139Z,24.77
2022-12-27T18:04:49.339Z,22.27
2022-12-27T18:07:24.997Z,22.30
2022-12-27T18:09:56.587Z,21.00
2022-12-27T18:12:28.510Z,17.63
2022-12-27T18:15:02.511Z,15.03
2022-12-27T18:17:35.989Z,16.77
2022-12-27T18:20:28.066Z,14.80
2022-12-27T18:23:15.118Z,12.50
2022-12-27T18:25:52.996Z,11.80
2022-12-27T18:28:28.673Z,12.67
2022-12-27T18:31:08.181Z,8.27
2022-12-27T18:33:40.931Z,9.97
2022-12-27T18:36:14.131Z,11.93
2022-12-27T18:38:45.072Z,10.57
2022-12-27T18:41:17.025Z,10.00
2022-12-27T18:43:47.115Z,8.53
2022-12-27T18:46:18.832Z,11.47
2022-12-27T18:48:47.576Z,9.97
2022-12-27T18:51:16.151Z,8.13
2022-12-27T18:53:45.855Z,8.03
2022-12-27T18:56:29.311Z,8.37
2022-12-27T18:59:06.708Z,7.70
2022-12-27T19:01:43.100Z,7.07
2022-12-27T19:04:26.778Z,7.67
2022-12-27T19:06:59.645Z,5.63
2022-12-27T19:09:31.171Z,7.97
2022-12-27T19:12:01.561Z,8.40
2022-12-27T19:14:37.708Z,11.63
2022-12-27T19:17:11.283Z,14.77
2022-12-27T19:19:40.152Z,12.70
2022-12-27T19:22:36.947Z,12.47
2022-12-27T19:25:08.553Z,12.90
2022-12-27T19:27:37.014Z,10.27
2022-12-27T19:30:06.055Z,9.50
2022-12-27T19:32:37.039Z,7.40
2022-12-27T19:35:08.606Z,6.50
2022-12-27T19:37:37.020Z,7.60
2022-12-27T19:40:07.683Z,11.30
2022-12-27T19:42:36.088Z,8.83
2022-12-27T19:45:04.489Z,6.13
2022-12-27T19:47:34.970Z,6.87
2022-12-27T19:50:05.079Z,10.73
2022-12-27T19:52:34.264Z,10.67
2022-12-27T19:55:06.472Z,6.83
2022-12-27T19:57:34.885Z,6.87
2022-12-27T20:00:12.351Z,9.80
2022-12-27T20:02:41.194Z,6.70
2022-12-27T20:05:12.607Z,8.00
2022-12-27T20:07:41.673Z,6.00
2022-12-27T20:10:14.940Z,5.57
2022-12-27T20:12:43.406Z,7.50
2022-12-27T20:15:12.852Z,6.67
2022-12-27T20:17:45.006Z,6.07
2022-12-27T20:20:16.172Z,4.03
2022-12-27T20:22:44.732Z,5.33
2022-12-27T20:25:13.359Z,5.27
2022-12-27T20:27:41.779Z,6.60
2022-12-27T20:30:11.554Z,6.27
2022-12-27T20:32:39.930Z,7.87
2022-12-27T20:35:09.141Z,7.37
2022-12-27T20:37:38.974Z,10.43
2022-12-27T20:40:11.188Z,11.77
2022-12-27T20:42:39.671Z,18.43
2022-12-27T20:45:09.343Z,11.03
2022-12-27T20:47:37.713Z,13.43
2022-12-27T20:50:07.402Z,9.13
2022-12-27T20:52:38.666Z,7.13
2022-12-27T20:55:10.250Z,5.40
2022-12-27T20:57:39.208Z,10.40
2022-12-27T21:00:09.930Z,13.30
2022-12-27T21:02:40.370Z,10.00
2022-12-27T21:05:09.594Z,12.60
2022-12-27T21:07:38.683Z,14.10
2022-12-27T21:10:10.600Z,11.90
2022-12-27T21:12:39.115Z,7.63
2022-12-27T21:15:09.144Z,11.10
2022-12-27T21:17:37.592Z,10.37
2022-12-27T21:20:11.182Z,5.57
2022-12-27T21:22:40.729Z,6.27
2022-12-27T21:25:10.993Z,4.80
2022-12-27T21:27:39.430Z,4.93
2022-12-27T21:30:08.887Z,7.27
2022-12-27T21:32:37.592Z,4.23
2022-12-27T21:35:06.521Z,4.97
2022-12-27T21:37:34.939Z,5.20
2022-12-27T21:40:03.307Z,4.10
2022-12-27T21:42:33.171Z,7.43
2022-12-27T21:45:01.532Z,5.30
2022-12-27T21:47:31.720Z,4.63
2022-12-27T21:50:00.095Z,6.13
2022-12-27T21:52:29.060Z,7.23
2022-12-27T21:54:57.525Z,7.13
2022-12-27T21:57:25.862Z,14.63
2022-12-27T21:59:56.141Z,6.47
2022-12-27T22:02:24.759Z,7.77
2022-12-27T22:04:53.198Z,9.90
2022-12-27T22:07:21.614Z,5.60
2022-12-27T22:09:49.982Z,5.37
2022-12-27T22:12:18.517Z,4.13
2022-12-27T22:14:46.795Z,3.83
2022-12-27T22:17:16.663Z,3.50
2022-12-27T22:19:46.007Z,7.43
2022-12-27T22:22:14.317Z,10.07
2022-12-27T22:24:42.724Z,7.47
2022-12-27T22:27:11.061Z,4.50
2022-12-27T22:29:39.405Z,5.03
2022-12-27T22:32:07.800Z,4.33
2022-12-27T22:34:37.625Z,4.20
2022-12-27T22:37:06.000Z,4.57
2022-12-27T22:39:34.396Z,4.50
2022-12-27T22:42:02.842Z,5.27
2022-12-27T22:44:31.219Z,4.33
2022-12-27T22:47:25.930Z,3.80
2022-12-27T22:49:49.442Z,5.47
2022-12-27T22:52:17.775Z,2.50
2022-12-27T22:55:04.028Z,5.73
2022-12-27T22:57:35.485Z,4.57
2022-12-27T23:00:04.554Z,9.57
2022-12-27T23:02:34.651Z,6.77
2022-12-27T23:05:05.729Z,5.10
2022-12-27T23:08:06.160Z,11.73
2022-12-27T23:10:22.717Z,12.77
2022-12-27T23:12:51.030Z,8.33
2022-12-27T23:15:19.432Z,7.43
2022-12-27T23:17:47.780Z,8.83
2022-12-27T23:20:17.695Z,7.70
2022-12-27T23:22:51.598Z,6.97
2022-12-27T23:25:24.511Z,8.27
2022-12-27T23:27:54.127Z,11.30
2022-12-27T23:30:23.579Z,8.20
2022-12-27T23:32:54.397Z,7.87
2022-12-27T23:35:24.159Z,10.03
2022-12-27T23:37:52.618Z,8.53
2022-12-27T23:40:20.940Z,6.23
2022-12-27T23:42:49.384Z,7.87
2022-12-27T23:45:17.747Z,6.17
2022-12-27T23:47:46.168Z,7.13
2022-12-27T23:50:20.585Z,6.87
2022-12-27T23:52:50.933Z,8.37
2022-12-27T23:55:19.461Z,8.07
2022-12-27T23:57:47.888Z,8.03
